Time;durP1;ratioP1;P1;durP2;ratioP2;P2;SDS_P1;SDS_P2;PMS_P1;PMS_P2;Temp;Humidity;BMP_temperature;BMP_pressure;BME280_temperature;BME280_humidity;BME280_pressure;Samples;Min_cycle;Max_cycle;Signal;HPM_P1;HPM_P2
2023/03/27 00:00:41;;;;;;;3.78;3.20;;;10.80;70.10;;;;;;5068446;28;20032;-58
2023/03/27 00:03:11;;;;;;;3.50;2.97;;;10.80;70.20;;;;;;5072517;28;20495;-50
2023/03/27 00:05:37;;;;;;;3.63;3.05;;;10.80;70.00;;;;;;5072253;28;20036;-52
2023/03/27 00:08:04;;;;;;;4.57;3.33;;;10.90;70.20;;;;;;5070590;28;20482;-52
2023/03/27 00:10:31;;;;;;;3.25;2.95;;;10.80;70.10;;;;;;5070905;28;20070;-50
2023/03/27 00:12:58;;;;;;;4.22;3.30;;;10.80;70.00;;;;;;5070275;28;20064;-59
2023/03/27 00:15:24;;;;;;;3.38;3.08;;;10.80;70.00;;;;;;5071522;28;20190;-58
2023/03/27 00:17:51;;;;;;;4.68;3.60;;;10.70;70.10;;;;;;5071764;28;20016;-61
2023/03/27 00:20:21;;;;;;;4.70;3.55;;;10.70;70.10;;;;;;5071254;28;20033;-61
2023/03/27 00:22:54;;;;;;;4.35;3.33;;;10.70;70.30;;;;;;5072497;28;20048;-59
2023/03/27 00:25:21;;;;;;;3.70;3.13;;;10.60;70.30;;;;;;5071035;28;20035;-59
2023/03/27 00:27:47;;;;;;;4.35;3.33;;;10.60;70.40;;;;;;5071831;28;20494;-61
2023/03/27 00:30:14;;;;;;;3.55;3.13;;;10.60;70.50;;;;;;5071392;28;20048;-61
2023/03/27 00:32:40;;;;;;;4.28;3.50;;;10.50;70.30;;;;;;5050078;28;20021;-59
2023/03/27 00:35:08;;;;;;;4.10;3.20;;;10.50;70.40;;;;;;5063509;28;20058;-59
2023/03/27 00:37:36;;;;;;;4.47;3.50;;;10.50;70.50;;;;;;5071593;28;20048;-59
2023/03/27 00:40:06;;;;;;;4.15;3.25;;;10.50;70.60;;;;;;5071129;28;20055;-59
2023/03/27 00:42:33;;;;;;;4.07;3.30;;;10.50;70.50;;;;;;5071094;28;20463;-59
2023/03/27 00:44:59;;;;;;;3.35;3.05;;;10.50;70.60;;;;;;5071009;28;20382;-60
2023/03/27 00:47:34;;;;;;;4.60;3.40;;;10.50;70.60;;;;;;5077796;28;20032;-60
2023/03/27 00:50:09;;;;;;;3.83;3.20;;;10.50;70.70;;;;;;5070088;28;20478;-59
2023/03/27 00:52:37;;;;;;;3.38;2.88;;;10.50;70.80;;;;;;5060463;28;20033;-59
2023/03/27 00:55:08;;;;;;;3.88;3.35;;;10.40;70.70;;;;;;5071723;28;20033;-59
2023/03/27 00:57:35;;;;;;;4.13;3.40;;;10.40;70.80;;;;;;5070640;28;20517;-56
2023/03/27 01:00:09;;;;;;;3.92;3.22;;;10.40;70.80;;;;;;5068177;28;20016;-51
2023/03/27 01:02:35;;;;;;;3.78;3.45;;;10.50;70.90;;;;;;5075167;28;20024;-63
2023/03/27 01:05:01;;;;;;;4.35;3.40;;;10.50;70.80;;;;;;5071980;28;20025;-61
2023/03/27 01:07:27;;;;;;;5.03;3.80;;;10.50;70.70;;;;;;5070660;28;20090;-63
2023/03/27 01:09:53;;;;;;;4.85;3.88;;;10.60;70.70;;;;;;5074358;28;20028;-63
2023/03/27 01:12:58;;;;;;;5.50;4.03;;;10.60;70.60;;;;;;5074590;28;20386;-58
2023/03/27 01:15:35;;;;;;;6.38;3.92;;;10.70;70.40;;;;;;5049700;28;20084;-59
2023/03/27 01:18:42;;;;;;;3.90;3.53;;;10.70;70.10;;;;;;5074583;28;20036;-49
2023/03/27 01:21:26;;;;;;;6.18;4.10;;;10.60;70.20;;;;;;5073837;28;20029;-52
2023/03/27 01:24:21;;;;;;;4.68;4.13;;;10.60;70.30;;;;;;5078445;28;20380;-50
2023/03/27 01:27:00;;;;;;;3.83;3.30;;;10.50;70.20;;;;;;5074445;28;20049;-61
2023/03/27 01:29:29;;;;;;;4.53;3.35;;;10.50;70.30;;;;;;5060683;28;20028;-61
2023/03/27 01:32:25;;;;;;;4.40;3.65;;;10.40;70.40;;;;;;5065008;28;20111;-59
2023/03/27 01:35:33;;;;;;;6.47;3.88;;;10.40;70.60;;;;;;5064991;28;20512;-59
2023/03/27 01:38:07;;;;;;;4.38;3.47;;;10.30;70.60;;;;;;5055155;28;20379;-59
2023/03/27 01:40:40;;;;;;;4.65;3.60;;;10.20;70.90;;;;;;5069945;28;20107;-59
2023/03/27 01:43:17;;;;;;;4.93;3.92;;;10.20;71.10;;;;;;5074396;28;20032;-59
2023/03/27 01:46:24;;;;;;;4.60;3.72;;;10.20;71.10;;;;;;5074410;28;20528;-59
2023/03/27 01:49:09;;;;;;;3.63;3.30;;;10.20;71.20;;;;;;5048629;28;20047;-58
2023/03/27 01:51:42;;;;;;;4.88;3.70;;;10.20;71.30;;;;;;5071105;28;20025;-59
2023/03/27 01:54:28;;;;;;;4.60;3.85;;;10.20;71.20;;;;;;5062523;28;20035;-59
2023/03/27 01:57:21;;;;;;;5.22;3.95;;;10.30;71.20;;;;;;5074046;28;20107;-52
2023/03/27 01:59:54;;;;;;;4.63;3.70;;;10.30;70.90;;;;;;5073248;28;20031;-52
2023/03/27 02:02:28;;;;;;;5.32;3.70;;;10.30;70.80;;;;;;5075426;28;20115;-53
2023/03/27 02:05:00;;;;;;;6.75;4.30;;;10.40;70.80;;;;;;5075699;28;20116;-52
2023/03/27 02:07:33;;;;;;;4.80;3.85;;;10.30;70.70;;;;;;5073310;28;20036;-59
2023/03/27 02:10:05;;;;;;;4.63;3.80;;;10.30;70.70;;;;;;5072950;28;20040;-59
2023/03/27 02:12:38;;;;;;;5.65;4.22;;;10.30;70.80;;;;;;5071842;28;20037;-61
2023/03/27 02:15:11;;;;;;;6.00;4.60;;;10.20;70.80;;;;;;5060416;28;20039;-62
2023/03/27 02:17:43;;;;;;;5.85;4.53;;;10.10;71.00;;;;;;5072557;28;20390;-61
2023/03/27 02:20:14;;;;;;;6.53;5.13;;;10.10;71.20;;;;;;5072754;28;20032;-62
2023/03/27 02:22:47;;;;;;;7.22;5.30;;;10.10;71.20;;;;;;5073090;28;20032;-59
2023/03/27 02:25:35;;;;;;;5.35;4.60;;;10.10;71.20;;;;;;5077059;28;20075;-59
2023/03/27 02:28:30;;;;;;;5.53;4.70;;;10.00;71.30;;;;;;5073133;28;20036;-59
2023/03/27 02:31:16;;;;;;;5.68;4.13;;;9.90;71.40;;;;;;5073438;28;20534;-56
2023/03/27 02:34:24;;;;;;;5.28;4.38;;;9.90;71.60;;;;;;5068614;28;20024;-60
2023/03/27 02:37:02;;;;;;;4.47;4.00;;;9.80;71.60;;;;;;5033458;28;20063;-61
2023/03/27 02:39:56;;;;;;;5.82;4.43;;;9.80;71.70;;;;;;5061009;28;20029;-63
2023/03/27 02:42:54;;;;;;;6.32;4.60;;;9.70;71.90;;;;;;5071444;28;20012;-59
2023/03/27 02:45:44;;;;;;;5.15;4.10;;;9.70;72.10;;;;;;5061360;28;20099;-59
2023/03/27 02:48:25;;;;;;;5.30;4.50;;;9.70;72.10;;;;;;5079450;28;20040;-59
2023/03/27 02:51:06;;;;;;;5.00;4.50;;;9.70;72.10;;;;;;5061285;28;20024;-58
2023/03/27 02:53:39;;;;;;;5.93;4.53;;;9.60;72.30;;;;;;5071703;28;20024;-58
2023/03/27 02:56:06;;;;;;;6.32;4.60;;;9.60;72.30;;;;;;5073989;28;20621;-58
2023/03/27 02:58:49;;;;;;;5.88;4.80;;;9.60;72.30;;;;;;5072543;28;20402;-59
2023/03/27 03:01:18;;;;;;;5.38;4.43;;;9.50;72.40;;;;;;5072489;28;20033;-59
2023/03/27 03:03:53;;;;;;;5.30;4.47;;;9.50;72.40;;;;;;5078741;28;20075;-59
2023/03/27 03:06:21;;;;;;;5.60;4.82;;;9.50;72.60;;;;;;5072336;28;20032;-59
2023/03/27 03:08:48;;;;;;;6.38;4.80;;;9.50;72.60;;;;;;5072437;28;20068;-59
2023/03/27 03:11:14;;;;;;;5.93;4.45;;;9.50;72.70;;;;;;5070841;28;20063;-58
2023/03/27 03:13:40;;;;;;;5.50;4.22;;;9.50;73.00;;;;;;5072526;28;20029;-59
2023/03/27 03:16:07;;;;;;;6.63;5.28;;;9.50;72.80;;;;;;5072385;28;20434;-61
2023/03/27 03:18:33;;;;;;;7.10;5.38;;;9.50;72.60;;;;;;5072312;28;20528;-63
2023/03/27 03:20:59;;;;;;;7.05;5.57;;;9.50;72.80;;;;;;5072157;28;20032;-62
2023/03/27 03:23:25;;;;;;;6.93;5.93;;;9.40;72.60;;;;;;5077063;28;20094;-61
2023/03/27 03:25:55;;;;;;;7.50;5.97;;;9.50;72.60;;;;;;5071717;28;20107;-61
2023/03/27 03:28:26;;;;;;;10.85;6.90;;;9.50;72.60;;;;;;5071613;28;20036;-61
2023/03/27 03:30:52;;;;;;;;;;;9.50;72.50;;;;;;5071523;28;20427;-61
2023/03/27 03:33:19;;;;;;;8.93;6.35;;;9.50;72.50;;;;;;5070405;28;19946;-61
2023/03/27 03:35:47;;;;;;;8.82;6.88;;;9.50;72.40;;;;;;5068035;28;20028;-61
2023/03/27 03:38:13;;;;;;;9.10;6.93;;;9.50;72.40;;;;;;5063118;28;20060;-61
2023/03/27 03:40:39;;;;;;;9.10;6.63;;;9.50;72.20;;;;;;5071589;28;20037;-62
2023/03/27 03:43:05;;;;;;;10.50;7.22;;;9.50;72.30;;;;;;5072081;28;20387;-61
2023/03/27 03:45:30;;;;;;;9.20;6.75;;;9.50;72.20;;;;;;5070886;28;20100;-61
2023/03/27 03:47:56;;;;;;;8.80;6.55;;;9.50;72.30;;;;;;5073297;28;20471;-61
2023/03/27 03:50:22;;;;;;;10.23;6.78;;;9.50;72.20;;;;;;5067408;28;20021;-61
2023/03/27 03:52:47;;;;;;;9.05;6.85;;;9.50;72.30;;;;;;5071181;28;20029;-62
2023/03/27 03:55:14;;;;;;;9.07;7.00;;;9.50;72.50;;;;;;5071544;28;20025;-62
2023/03/27 03:57:45;;;;;;;10.60;7.95;;;9.40;72.60;;;;;;5071394;28;20024;-56
2023/03/27 04:00:12;;;;;;;8.65;7.10;;;9.40;72.60;;;;;;5070927;28;20439;-52
2023/03/27 04:02:40;;;;;;;9.63;7.70;;;9.40;72.80;;;;;;5073880;28;20020;-61
2023/03/27 04:05:08;;;;;;;8.95;7.47;;;9.50;72.90;;;;;;5071261;28;20020;-62
2023/03/27 04:07:34;;;;;;;7.90;6.35;;;9.50;73.00;;;;;;5071542;28;20029;-62
2023/03/27 04:10:01;;;;;;;8.15;6.40;;;9.50;73.00;;;;;;5071654;28;20082;-62
2023/03/27 04:12:27;;;;;;;10.45;7.07;;;9.50;73.10;;;;;;5071813;28;20027;-61
2023/03/27 04:14:53;;;;;;;11.02;6.40;;;9.50;73.20;;;;;;5071539;28;20371;-64
2023/03/27 04:17:19;;;;;;;8.55;6.10;;;9.50;73.30;;;;;;5071002;28;20036;-60
2023/03/27 04:19:45;;;;;;;9.98;6.35;;;9.60;73.30;;;;;;5071524;28;20021;-57
2023/03/27 04:22:17;;;;;;;7.97;5.45;;;9.60;73.30;;;;;;5071642;28;20025;-60
2023/03/27 04:24:43;;;;;;;7.75;6.00;;;9.60;73.20;;;;;;5072533;28;20459;-61
2023/03/27 04:27:12;;;;;;;8.50;5.72;;;9.70;73.10;;;;;;5071344;28;20094;-61
2023/03/27 04:29:42;;;;;;;6.55;5.07;;;9.70;73.10;;;;;;5071439;28;20103;-62
2023/03/27 04:32:11;;;;;;;8.82;5.82;;;9.70;73.10;;;;;;5071379;28;20028;-61
2023/03/27 04:34:39;;;;;;;7.68;5.95;;;9.80;73.10;;;;;;5059749;28;20023;-61
2023/03/27 04:37:05;;;;;;;6.00;5.18;;;9.80;73.20;;;;;;5071313;28;20171;-60
2023/03/27 04:39:35;;;;;;;6.05;4.75;;;9.80;73.10;;;;;;5070949;28;20526;-60
2023/03/27 04:42:01;;;;;;;7.85;5.22;;;9.90;73.10;;;;;;5070940;28;20086;-59
2023/03/27 04:44:27;;;;;;;6.50;5.22;;;9.90;73.10;;;;;;5049172;28;20483;-60
2023/03/27 04:46:52;;;;;;;5.38;4.35;;;10.00;73.10;;;;;;5080187;28;20044;-53
2023/03/27 04:49:19;;;;;;;5.68;4.63;;;10.00;73.00;;;;;;5074519;28;20024;-55
2023/03/27 04:51:47;;;;;;;5.75;4.53;;;10.10;73.40;;;;;;5069503;28;20052;-51
2023/03/27 04:54:13;;;;;;;5.60;4.40;;;10.30;73.90;;;;;;5073938;28;20344;-53
2023/03/27 04:56:39;;;;;;;6.22;4.15;;;10.40;73.60;;;;;;5072249;28;20032;-51
2023/03/27 04:59:05;;;;;;;5.32;4.57;;;10.50;73.70;;;;;;5065661;28;20024;-56
2023/03/27 05:01:30;;;;;;;5.75;4.70;;;10.70;73.70;;;;;;5060701;28;20400;-52
2023/03/27 05:03:56;;;;;;;5.25;4.13;;;10.90;73.20;;;;;;5078425;28;20028;-53
2023/03/27 05:06:22;;;;;;;6.68;4.70;;;11.00;72.50;;;;;;5074275;28;20115;-61
2023/03/27 05:08:48;;;;;;;6.05;4.45;;;11.20;72.50;;;;;;5072946;28;20052;-61
2023/03/27 05:11:14;;;;;;;5.85;4.35;;;11.40;71.90;;;;;;5073880;28;20037;-61
2023/03/27 05:13:40;;;;;;;7.00;5.07;;;11.70;72.00;;;;;;5066702;28;20341;-61
2023/03/27 05:16:08;;;;;;;5.55;4.05;;;12.10;71.60;;;;;;5070026;28;20063;-61
2023/03/27 05:18:33;;;;;;;3.90;3.50;;;12.50;70.40;;;;;;5079727;28;20034;-61
2023/03/27 05:20:59;;;;;;;4.65;3.95;;;13.00;70.40;;;;;;5077269;28;20028;-58
2023/03/27 05:23:25;;;;;;;4.90;3.60;;;13.60;69.00;;;;;;5070666;28;20411;-49
2023/03/27 05:25:51;;;;;;;6.40;4.00;;;14.10;68.20;;;;;;5072808;28;20456;-53
2023/03/27 05:28:17;;;;;;;5.00;3.60;;;14.60;66.80;;;;;;5080530;28;20090;-51
2023/03/27 05:30:43;;;;;;;5.18;3.67;;;15.00;65.70;;;;;;5071386;28;20078;-50
2023/03/27 05:33:12;;;;;;;5.15;4.03;;;15.30;64.70;;;;;;5067234;28;20027;-51
2023/03/27 05:35:45;;;;;;;5.00;3.55;;;15.50;64.50;;;;;;5073436;28;20408;-54
2023/03/27 05:38:11;;;;;;;4.15;3.38;;;16.00;64.40;;;;;;5073002;28;20032;-61
2023/03/27 05:40:38;;;;;;;5.30;3.92;;;16.50;63.10;;;;;;5075264;28;20391;-61
2023/03/27 05:43:04;;;;;;;5.95;4.32;;;16.80;62.00;;;;;;5072249;28;20029;-61
2023/03/27 05:45:31;;;;;;;5.15;4.00;;;17.00;61.60;;;;;;5069860;28;20013;-61
2023/03/27 05:47:58;;;;;;;5.63;4.15;;;17.10;60.60;;;;;;5068160;28;20028;-61
2023/03/27 05:50:27;;;;;;;5.05;3.63;;;17.00;60.20;;;;;;5066352;28;20029;-62
2023/03/27 05:52:57;;;;;;;4.85;4.00;;;16.90;60.20;;;;;;5075868;28;21063;-60
2023/03/27 05:55:24;;;;;;;5.97;4.47;;;16.90;60.30;;;;;;5071678;28;20043;-60
2023/03/27 05:57:50;;;;;;;4.63;4.00;;;17.10;60.10;;;;;;5049790;28;20383;-54
2023/03/27 06:00:16;;;;;;;5.68;4.32;;;17.40;59.50;;;;;;5065898;28;20029;-54
2023/03/27 06:02:43;;;;;;;6.20;4.68;;;17.60;59.30;;;;;;5059057;28;20111;-59
2023/03/27 06:05:14;;;;;;;6.22;4.05;;;17.80;58.60;;;;;;5060722;28;20025;-59
2023/03/27 06:07:41;;;;;;;5.07;3.90;;;18.10;58.30;;;;;;5057762;28;20499;-62
2023/03/27 06:10:09;;;;;;;4.53;3.65;;;18.40;57.70;;;;;;5061142;28;20043;-61
2023/03/27 06:12:35;;;;;;;3.92;3.45;;;18.50;56.60;;;;;;5066289;28;20024;-61
2023/03/27 06:15:03;;;;;;;6.32;4.07;;;18.60;55.70;;;;;;5056865;28;20062;-61
2023/03/27 06:17:28;;;;;;;5.22;4.00;;;18.40;55.40;;;;;;5066027;28;20036;-61
2023/03/27 06:19:55;;;;;;;3.75;3.33;;;17.90;55.50;;;;;;5067560;28;20752;-60
2023/03/27 06:22:21;;;;;;;5.65;4.13;;;17.50;56.10;;;;;;5070657;28;20024;-61
2023/03/27 06:24:47;;;;;;;4.15;3.47;;;17.10;56.70;;;;;;5071084;28;20067;-61
2023/03/27 06:27:13;;;;;;;5.65;3.90;;;16.70;57.20;;;;;;5070727;28;20451;-61
2023/03/27 06:29:39;;;;;;;5.53;4.15;;;16.30;57.80;;;;;;5055927;28;20117;-60
2023/03/27 06:32:05;;;;;;;6.05;4.28;;;16.00;58.50;;;;;;5059895;28;20425;-59
2023/03/27 06:34:30;;;;;;;6.63;4.28;;;15.70;59.00;;;;;;5053323;28;20085;-59
2023/03/27 06:36:58;;;;;;;6.22;4.65;;;15.40;59.60;;;;;;5056167;28;21040;-60
2023/03/27 06:39:26;;;;;;;4.47;3.80;;;15.20;59.80;;;;;;5057124;28;20459;-60
2023/03/27 06:41:52;;;;;;;5.00;4.13;;;15.00;60.30;;;;;;5057216;28;20119;-61
2023/03/27 06:44:17;;;;;;;4.60;3.58;;;14.90;60.70;;;;;;5052061;28;20152;-59
2023/03/27 06:46:43;;;;;;;4.25;3.60;;;14.80;60.90;;;;;;5053035;28;20032;-61
2023/03/27 06:49:10;;;;;;;3.78;3.30;;;14.70;61.00;;;;;;5050868;28;20052;-59
2023/03/27 06:51:36;;;;;;;3.38;2.80;;;14.60;61.20;;;;;;5044760;28;20164;-60
2023/03/27 06:54:03;;;;;;;2.95;2.65;;;14.50;61.10;;;;;;5046827;28;20081;-58
2023/03/27 06:56:29;;;;;;;4.07;2.60;;;14.50;61.30;;;;;;5050204;28;20017;-60
2023/03/27 06:58:55;;;;;;;3.45;2.88;;;14.50;61.30;;;;;;5050052;28;20059;-61
2023/03/27 07:01:21;;;;;;;3.42;2.80;;;14.40;61.20;;;;;;5043433;28;20032;-59
2023/03/27 07:03:47;;;;;;;2.70;2.50;;;14.40;61.30;;;;;;5054538;28;20090;-60
2023/03/27 07:06:13;;;;;;;2.40;2.22;;;14.40;61.30;;;;;;5053974;28;20035;-59
2023/03/27 07:08:39;;;;;;;2.35;2.15;;;14.30;61.30;;;;;;5047594;28;20135;-60
2023/03/27 07:11:05;;;;;;;2.63;2.15;;;14.30;61.10;;;;;;5052862;28;20038;-56
2023/03/27 07:13:30;;;;;;;3.47;2.50;;;14.20;61.40;;;;;;5048716;28;20040;-60
2023/03/27 07:15:56;;;;;;;3.05;2.65;;;14.20;61.60;;;;;;5045389;28;20028;-60
2023/03/27 07:18:22;;;;;;;2.88;2.67;;;14.10;61.70;;;;;;5035412;28;20035;-61
2023/03/27 07:20:49;;;;;;;2.60;2.40;;;14.10;61.80;;;;;;5036587;28;20044;-60
2023/03/27 07:23:15;;;;;;;3.05;2.75;;;14.10;61.80;;;;;;5036978;28;20040;-58
2023/03/27 07:25:41;;;;;;;3.38;3.08;;;14.10;61.80;;;;;;5042445;28;20111;-58
2023/03/27 07:28:13;;;;;;;3.35;2.88;;;14.20;62.00;;;;;;5037631;28;20040;-59
2023/03/27 07:30:40;;;;;;;3.38;2.92;;;14.20;61.90;;;;;;5042005;28;20742;-60
2023/03/27 07:33:08;;;;;;;3.30;3.00;;;14.30;61.60;;;;;;5036697;28;20032;-62
2023/03/27 07:35:40;;;;;;;4.30;3.05;;;14.30;61.30;;;;;;5042081;28;20036;-61
2023/03/27 07:38:05;;;;;;;3.20;2.90;;;14.30;61.10;;;;;;5039480;28;20067;-60
2023/03/27 07:40:32;;;;;;;3.45;3.05;;;14.30;61.60;;;;;;5037459;28;20025;-57
2023/03/27 07:42:58;;;;;;;3.58;3.17;;;14.40;61.00;;;;;;5047251;28;20347;-56
2023/03/27 07:45:24;;;;;;;4.72;3.78;;;14.40;61.10;;;;;;5047385;28;20148;-57
2023/03/27 07:47:50;;;;;;;4.10;3.70;;;14.40;61.20;;;;;;5041916;28;20660;-60
2023/03/27 07:50:19;;;;;;;5.60;3.72;;;14.40;61.20;;;;;;5039107;28;20082;-59
2023/03/27 07:52:45;;;;;;;5.93;4.07;;;14.40;61.40;;;;;;5039274;28;20091;-58
2023/03/27 07:55:16;;;;;;;3.92;3.53;;;14.40;61.40;;;;;;5043581;28;20040;-59
2023/03/27 07:57:48;;;;;;;5.63;3.85;;;14.40;61.50;;;;;;5042773;28;20620;-56
2023/03/27 08:00:21;;;;;;;6.18;4.60;;;14.30;61.30;;;;;;5034386;28;20029;-59
2023/03/27 08:02:49;;;;;;;6.78;4.90;;;14.40;61.40;;;;;;5045408;28;20041;-59
2023/03/27 08:05:16;;;;;;;5.35;4.32;;;14.30;61.40;;;;;;5047074;28;21493;-60
2023/03/27 08:07:44;;;;;;;5.65;4.45;;;14.30;61.50;;;;;;5036781;28;20044;-58
2023/03/27 08:10:10;;;;;;;4.28;3.35;;;14.30;61.30;;;;;;5043658;28;20029;-60
2023/03/27 08:12:37;;;;;;;6.65;4.55;;;14.30;61.20;;;;;;5047669;28;20043;-62
2023/03/27 08:15:04;;;;;;;4.43;3.70;;;14.30;61.30;;;;;;5053456;28;20036;-60
2023/03/27 08:17:32;;;;;;;3.97;3.42;;;14.30;61.20;;;;;;5042900;28;20037;-58
2023/03/27 08:19:59;;;;;;;4.38;3.50;;;14.30;61.70;;;;;;5043346;28;20690;-62
2023/03/27 08:22:25;;;;;;;4.38;3.45;;;14.30;61.10;;;;;;5031256;28;20866;-59
2023/03/27 08:24:51;;;;;;;4.57;3.50;;;14.30;61.10;;;;;;5044076;28;20163;-60
2023/03/27 08:27:17;;;;;;;4.00;3.40;;;14.30;60.90;;;;;;5047263;28;20068;-61
2023/03/27 08:29:43;;;;;;;3.78;3.25;;;14.30;60.70;;;;;;5049930;28;20293;-62
2023/03/27 08:32:10;;;;;;;3.80;3.33;;;14.30;60.60;;;;;;5046429;28;20036;-61
2023/03/27 08:34:36;;;;;;;3.70;3.30;;;14.20;60.50;;;;;;5038427;28;20036;-60
2023/03/27 08:37:03;;;;;;;3.72;3.30;;;14.20;60.50;;;;;;5049781;28;20147;-60
2023/03/27 08:39:32;;;;;;;3.47;3.00;;;14.20;60.70;;;;;;5046265;28;20163;-62
2023/03/27 08:42:01;;;;;;;5.00;3.65;;;14.10;60.30;;;;;;5050626;28;21095;-61
2023/03/27 08:44:30;;;;;;;3.90;3.17;;;14.10;60.50;;;;;;5048378;28;20033;-60
2023/03/27 08:47:28;;;;;;;4.13;3.50;;;14.10;60.70;;;;;;5047302;28;20039;-58
2023/03/27 08:49:57;;;;;;;3.53;3.03;;;14.00;60.60;;;;;;4997296;28;20095;-58
2023/03/27 08:52:29;;;;;;;4.10;3.17;;;14.00;60.70;;;;;;5041518;28;20300;-58
2023/03/27 08:55:23;;;;;;;3.88;3.47;;;14.00;60.60;;;;;;5041603;28;20032;-57
2023/03/27 08:57:50;;;;;;;3.83;3.28;;;14.00;60.70;;;;;;5039667;28;20128;-60
2023/03/27 09:00:22;;;;;;;4.15;3.25;;;14.00;60.80;;;;;;5040801;28;20029;-56
2023/03/27 09:03:14;;;;;;;3.33;3.03;;;13.90;60.80;;;;;;5032615;28;20032;-59
2023/03/27 09:05:45;;;;;;;4.25;3.65;;;14.00;60.70;;;;;;5007924;28;20083;-61
2023/03/27 09:08:14;;;;;;;;;;;13.90;60.60;;;;;;5043472;28;21280;-60
2023/03/27 09:10:50;;;;;;;6.63;5.88;;;13.90;60.90;;;;;;5051059;28;19965;-57
2023/03/27 09:13:24;;;;;;;7.10;6.40;;;13.90;61.00;;;;;;5057371;28;20083;-59
2023/03/27 09:15:59;;;;;;;9.07;7.10;;;13.90;61.30;;;;;;5032447;28;20040;-60
2023/03/27 09:18:40;;;;;;;10.23;7.93;;;13.80;61.40;;;;;;5041141;28;20041;-61
2023/03/27 09:21:24;;;;;;;11.93;9.73;;;13.80;61.40;;;;;;5050876;28;20033;-59
2023/03/27 09:23:53;;;;;;;11.52;9.20;;;13.80;61.50;;;;;;5047764;28;20297;-59
2023/03/27 09:26:29;;;;;;;11.05;9.30;;;13.80;61.70;;;;;;5055749;28;20355;-61
2023/03/27 09:29:02;;;;;;;10.80;9.23;;;13.70;62.10;;;;;;5051500;28;20438;-59
2023/03/27 09:31:32;;;;;;;11.93;9.57;;;13.70;62.40;;;;;;5047864;28;20517;-60
2023/03/27 09:34:02;;;;;;;10.95;9.02;;;13.70;62.30;;;;;;5043601;28;21138;-62
2023/03/27 09:36:28;;;;;;;10.70;8.77;;;13.70;62.50;;;;;;5052345;28;20024;-59
2023/03/27 09:39:01;;;;;;;11.90;8.18;;;13.70;62.80;;;;;;5049556;28;20115;-60
2023/03/27 09:41:45;;;;;;;9.00;7.68;;;13.60;62.90;;;;;;5046674;28;20032;-61
2023/03/27 09:44:15;;;;;;;9.45;6.75;;;13.60;63.10;;;;;;5043011;28;20090;-58
2023/03/27 09:46:45;;;;;;;7.80;6.63;;;13.60;63.00;;;;;;5048809;28;20098;-59
2023/03/27 09:49:20;;;;;;;7.50;6.43;;;13.60;62.90;;;;;;5048426;28;20159;-61
2023/03/27 09:51:47;;;;;;;6.80;5.90;;;13.60;62.80;;;;;;5043392;28;20062;-61
2023/03/27 09:54:16;;;;;;;5.53;4.40;;;13.50;62.90;;;;;;5041212;28;20621;-58
2023/03/27 09:56:57;;;;;;;6.13;4.70;;;13.60;62.70;;;;;;5038770;28;20119;-57
2023/03/27 09:59:39;;;;;;;5.20;4.20;;;13.60;62.60;;;;;;5042703;28;20049;-59
2023/03/27 10:02:26;;;;;;;6.05;4.45;;;13.60;62.30;;;;;;5041333;28;20037;-60
2023/03/27 10:05:11;;;;;;;5.00;3.95;;;13.60;62.40;;;;;;5037891;28;20078;-60
2023/03/27 10:07:39;;;;;;;4.57;4.07;;;13.60;62.30;;;;;;5044222;28;20034;-59
2023/03/27 10:10:14;;;;;;;4.95;3.92;;;13.60;62.40;;;;;;5047119;28;20036;-59
2023/03/27 10:12:41;;;;;;;4.60;3.65;;;13.70;62.30;;;;;;5048906;28;20390;-60
2023/03/27 10:15:30;;;;;;;5.20;4.00;;;13.80;62.40;;;;;;5043462;28;20131;-59
2023/03/27 10:17:56;;;;;;;4.93;4.32;;;13.80;62.30;;;;;;5056590;28;20047;-61
2023/03/27 10:20:23;;;;;;;5.43;4.28;;;13.80;62.50;;;;;;5057516;28;20056;-58
2023/03/27 10:22:55;;;;;;;5.40;4.20;;;13.90;62.40;;;;;;5048594;28;20060;-61
2023/03/27 10:25:31;;;;;;;5.72;4.18;;;13.90;62.20;;;;;;5052271;28;20597;-61
2023/03/27 10:28:18;;;;;;;6.97;5.78;;;13.90;62.20;;;;;;5047218;28;20476;-60
2023/03/27 10:30:44;;;;;;;9.95;7.43;;;14.00;62.70;;;;;;5047638;28;20056;-61
2023/03/27 10:33:10;;;;;;;8.68;7.18;;;14.00;63.40;;;;;;5052887;28;20052;-59
2023/03/27 10:35:42;;;;;;;7.82;6.47;;;13.90;63.50;;;;;;5047913;28;21568;-58
2023/03/27 10:38:14;;;;;;;8.05;6.53;;;13.90;63.70;;;;;;5052017;28;20036;-57
2023/03/27 10:40:42;;;;;;;12.80;7.53;;;13.80;63.50;;;;;;5040750;28;20032;-62
2023/03/27 10:43:15;;;;;;;8.68;6.70;;;13.80;63.60;;;;;;5041658;28;20479;-59
2023/03/27 10:45:51;;;;;;;9.07;6.35;;;13.80;63.50;;;;;;5044881;28;20047;-59
2023/03/27 10:48:36;;;;;;;8.23;6.15;;;13.80;63.50;;;;;;5050993;28;20055;-59
2023/03/27 10:51:05;;;;;;;8.75;6.90;;;13.80;63.30;;;;;;5024073;28;20078;-58
2023/03/27 10:53:39;;;;;;;7.53;6.13;;;13.80;63.20;;;;;;5048248;28;20123;-62
2023/03/27 10:56:22;;;;;;;6.50;5.22;;;13.80;63.10;;;;;;5047021;28;20025;-61
2023/03/27 10:59:17;;;;;;;7.15;5.57;;;13.80;62.90;;;;;;5043842;28;20032;-61
2023/03/27 11:01:49;;;;;;;6.40;5.30;;;13.80;63.10;;;;;;4961327;28;20153;-62
2023/03/27 11:04:14;;;;;;;;;;;13.70;63.30;;;;;;5055948;28;21162;-57
2023/03/27 11:06:43;;;;;;;5.38;4.70;;;13.60;63.70;;;;;;5054663;28;19915;-62
2023/03/27 11:09:22;;;;;;;6.85;5.00;;;13.60;63.80;;;;;;5049233;28;20093;-60
2023/03/27 11:12:00;;;;;;;7.70;5.80;;;13.60;64.00;;;;;;5062865;28;20059;-63
2023/03/27 11:14:33;;;;;;;8.95;6.53;;;13.50;64.40;;;;;;5055027;28;20508;-61
2023/03/27 11:17:05;;;;;;;7.35;6.00;;;13.50;64.70;;;;;;5048599;28;20384;-62
2023/03/27 11:19:30;;;;;;;;;;;13.50;64.90;;;;;;5056163;28;20039;-61
2023/03/27 11:22:18;;;;;;;7.95;6.35;;;13.50;65.20;;;;;;5056193;28;19916;-60
2023/03/27 11:24:55;;;;;;;7.40;6.60;;;13.50;65.20;;;;;;5057090;28;20109;-62
2023/03/27 11:27:41;;;;;;;10.68;7.05;;;13.50;65.50;;;;;;5064527;28;22343;-59
2023/03/27 11:30:07;;;;;;;8.95;6.45;;;13.50;65.90;;;;;;5056856;28;20129;-60
2023/03/27 11:32:38;;;;;;;8.55;6.32;;;13.50;66.00;;;;;;5047815;28;20041;-60
2023/03/27 11:35:12;;;;;;;9.38;6.60;;;13.50;66.20;;;;;;5054575;28;20033;-62
2023/03/27 11:38:01;;;;;;;9.60;6.82;;;13.50;66.20;;;;;;5056328;28;20123;-61
2023/03/27 11:40:34;;;;;;;8.23;6.53;;;13.50;66.20;;;;;;5058729;28;20111;-62
2023/03/27 11:43:00;;;;;;;8.98;6.53;;;13.60;66.10;;;;;;5050222;28;20083;-61
2023/03/27 11:45:32;;;;;;;7.10;5.45;;;13.60;65.90;;;;;;5047693;28;20691;-60
2023/03/27 11:48:01;;;;;;;7.07;5.68;;;13.60;65.60;;;;;;5046454;28;20094;-60
2023/03/27 11:50:49;;;;;;;6.35;4.78;;;13.60;65.30;;;;;;5034405;28;20095;-60
2023/03/27 11:53:29;;;;;;;5.90;5.28;;;13.60;65.20;;;;;;5047876;28;20021;-61
2023/03/27 11:56:02;;;;;;;7.68;4.38;;;13.60;65.00;;;;;;5050656;28;20082;-64
2023/03/27 11:58:34;;;;;;;5.43;4.32;;;13.70;64.70;;;;;;5050514;28;20160;-61
2023/03/27 12:01:22;;;;;;;5.82;4.43;;;13.80;65.10;;;;;;5053482;28;20020;-60
2023/03/27 12:03:48;;;;;;;3.92;3.50;;;13.80;64.20;;;;;;5050113;28;20028;-59
2023/03/27 12:06:33;;;;;;;5.38;3.75;;;13.80;63.80;;;;;;5045865;28;20025;-63
2023/03/27 12:09:13;;;;;;;5.05;4.00;;;13.90;63.60;;;;;;5048693;28;20047;-60
2023/03/27 12:11:44;;;;;;;6.15;4.40;;;13.90;63.50;;;;;;5048216;28;20036;-60
2023/03/27 12:14:32;;;;;;;4.75;3.72;;;13.90;63.30;;;;;;5039381;28;20036;-61
2023/03/27 12:17:19;;;;;;;4.68;3.75;;;14.00;63.40;;;;;;5048222;28;20036;-60
2023/03/27 12:20:06;;;;;;;4.35;3.30;;;14.00;63.20;;;;;;5047998;28;20032;-62
2023/03/27 12:23:00;;;;;;;4.45;3.70;;;14.00;63.00;;;;;;5046741;28;20118;-63
2023/03/27 12:25:40;;;;;;;4.07;3.30;;;14.00;62.90;;;;;;5047721;28;20056;-61
2023/03/27 12:28:39;;;;;;;3.80;3.17;;;14.00;62.60;;;;;;5041240;28;20040;-58
2023/03/27 12:31:24;;;;;;;3.28;2.97;;;14.00;62.50;;;;;;5009312;28;20040;-61
2023/03/27 12:34:04;;;;;;;3.90;3.40;;;14.00;62.20;;;;;;5033452;28;20032;-59
2023/03/27 12:36:39;;;;;;;4.97;3.65;;;13.90;62.20;;;;;;5050372;28;20116;-59
2023/03/27 12:39:18;;;;;;;3.95;3.53;;;13.90;62.20;;;;;;5050488;28;20040;-60
2023/03/27 12:41:44;;;;;;;4.68;3.95;;;13.90;62.20;;;;;;5025723;28;20471;-59
2023/03/27 12:44:12;;;;;;;5.72;4.03;;;13.90;62.50;;;;;;5047023;28;20032;-60
2023/03/27 12:46:40;;;;;;;3.97;3.50;;;13.90;62.50;;;;;;5043319;28;20093;-60
2023/03/27 12:49:06;;;;;;;3.40;3.10;;;13.80;62.50;;;;;;5048852;28;20032;-57
2023/03/27 12:51:52;;;;;;;4.25;3.10;;;13.80;62.50;;;;;;5047079;28;20037;-61
2023/03/27 12:54:23;;;;;;;4.07;3.13;;;13.80;62.40;;;;;;5032090;28;20048;-60
2023/03/27 12:57:09;;;;;;;;;;;13.70;62.40;;;;;;5042636;28;20093;-60
2023/03/27 13:00:00;;;;;;;4.30;3.25;;;13.70;62.40;;;;;;5026782;28;20042;-59
2023/03/27 13:02:52;;;;;;;3.30;3.00;;;13.70;62.40;;;;;;5037150;28;20490;-58
2023/03/27 13:05:36;;;;;;;5.32;2.83;;;13.70;62.70;;;;;;5047167;28;20032;-59
2023/03/27 13:08:20;;;;;;;2.72;2.50;;;13.60;62.70;;;;;;5050167;28;20135;-59
2023/03/27 13:10:58;;;;;;;2.92;2.38;;;13.60;62.80;;;;;;5052399;28;20063;-60
2023/03/27 13:13:45;;;;;;;2.60;2.40;;;13.60;62.60;;;;;;5043537;28;20036;-56
2023/03/27 13:16:33;;;;;;;2.88;2.67;;;13.60;62.40;;;;;;5034128;28;20484;-59